Time;durP1;ratioP1;P1;durP2;ratioP2;P2;SDS_P1;SDS_P2;PMS_P1;PMS_P2;Temp;Humidity;BMP_temperature;BMP_pressure;BME280_temperature;BME280_humidity;BME280_pressure;Samples;Min_cycle;Max_cycle;Signal;HPM_P1;HPM_P2
2022/09/18 00:00:17;;;;;;;8.45;7.00;;;;;;;12.64;99.27;92756.70;1652650;85;21539;-58
2022/09/18 00:02:44;;;;;;;7.17;6.47;;;;;;;12.62;100.00;92761.36;1610713;88;21097;-56
2022/09/18 00:05:11;;;;;;;8.35;6.47;;;;;;;12.62;100.00;92777.16;1620128;87;21136;-56
2022/09/18 00:07:39;;;;;;;6.80;6.10;;;;;;;12.62;99.84;92778.53;1619797;87;21129;-56
2022/09/18 00:10:07;;;;;;;7.87;5.87;;;;;;;12.61;100.00;92770.13;1618339;87;21335;-57
2022/09/18 00:12:33;;;;;;;7.20;6.50;;;;;;;12.64;100.00;92736.02;1609515;88;20975;-57
2022/09/18 00:15:00;;;;;;;8.68;6.60;;;;;;;12.65;100.00;92709.92;1617760;87;21017;-57
2022/09/18 00:17:27;;;;;;;6.97;6.33;;;;;;;12.74;100.00;92719.30;1615541;87;21037;-57
2022/09/18 00:19:53;;;;;;;7.12;6.40;;;;;;;12.76;100.00;92727.81;1653112;85;21028;-56
2022/09/18 00:22:20;;;;;;;5.97;5.37;;;;;;;12.76;100.00;92721.68;1652361;85;21266;-57
2022/09/18 00:24:47;;;;;;;6.87;5.95;;;;;;;12.81;100.00;92721.52;1655361;85;20989;-57
2022/09/18 00:27:13;;;;;;;7.35;6.55;;;;;;;12.84;100.00;92728.77;1629425;87;21085;-57
2022/09/18 00:29:40;;;;;;;9.28;5.60;;;;;;;12.82;100.00;92740.94;1652851;85;21576;-58
2022/09/18 00:32:07;;;;;;;7.80;6.45;;;;;;;12.81;100.00;92747.72;1624331;87;21010;-56
2022/09/18 00:34:33;;;;;;;7.17;6.17;;;;;;;12.80;100.00;92724.91;1619250;88;21838;-57
2022/09/18 00:37:00;;;;;;;5.90;5.40;;;;;;;12.83;100.00;92716.99;1617434;87;20987;-57
2022/09/18 00:39:27;;;;;;;7.55;5.83;;;;;;;12.86;100.00;92704.20;1622338;87;20986;-57
2022/09/18 00:41:54;;;;;;;6.85;6.03;;;;;;;12.87;100.00;92702.94;1620259;88;21171;-57
2022/09/18 00:44:41;;;;;;;7.53;6.28;;;;;;;12.84;100.00;92692.28;1615025;87;21176;-58
2022/09/18 00:47:42;;;;;;;9.20;5.87;;;;;;;12.86;100.00;92691.78;1653388;86;21232;-57
2022/09/18 00:50:17;;;;;;;8.45;4.92;;;;;;;12.90;100.00;92686.73;1652034;85;20972;-56
2022/09/18 00:53:00;;;;;;;7.00;4.75;;;;;;;12.95;100.00;92681.20;1641903;86;21231;-58
2022/09/18 00:55:31;;;;;;;5.12;4.42;;;;;;;12.94;100.00;92685.84;1650738;85;21120;-57
2022/09/18 00:57:59;;;;;;;4.75;4.25;;;;;;;12.86;99.76;92706.95;1652546;85;20977;-56
2022/09/18 01:00:26;;;;;;;5.97;5.37;;;;;;;12.76;99.83;92704.36;1602097;87;21148;-57
2022/09/18 01:02:54;;;;;;;5.67;4.53;;;;;;;12.71;100.00;92707.27;1612344;88;21411;-57
2022/09/18 01:05:46;;;;;;;7.33;5.15;;;;;;;12.71;100.00;92714.16;1651043;85;21323;-57
2022/09/18 01:08:18;;;;;;;6.20;5.08;;;;;;;12.69;100.00;92704.91;1644626;85;21567;-58
2022/09/18 01:11:11;;;;;;;5.67;4.75;;;;;;;12.70;100.00;92681.58;1651765;85;21040;-57
2022/09/18 01:14:23;;;;;;;4.92;4.42;;;;;;;12.68;100.00;92660.66;1651965;85;21242;-57
2022/09/18 01:16:59;;;;;;;4.37;3.98;;;;;;;12.72;100.00;92684.58;1645844;85;21064;-57
2022/09/18 01:20:16;;;;;;;4.22;3.70;;;;;;;12.67;100.00;92705.41;1651712;86;21067;-58
2022/09/18 01:23:14;;;;;;;7.45;4.22;;;;;;;12.66;100.00;92709.43;1623788;87;21094;-58
2022/09/18 01:26:29;;;;;;;4.72;4.08;;;;;;;12.58;100.00;92700.82;1620281;88;21027;-57
2022/09/18 01:29:06;;;;;;;3.87;3.58;;;;;;;12.55;100.00;92688.05;1622545;87;21239;-57
2022/09/18 01:31:45;;;;;;;3.20;3.00;;;;;;;12.61;100.00;92673.59;1614068;88;21101;-57
2022/09/18 01:34:24;;;;;;;3.70;3.40;;;;;;;12.69;100.00;92664.91;1637037;86;20984;-57
2022/09/18 01:36:56;;;;;;;3.52;3.22;;;;;;;12.77;100.00;92656.20;1653441;85;21532;-56
2022/09/18 01:39:34;;;;;;;3.52;3.20;;;;;;;12.79;100.00;92649.53;1651923;85;20973;-57
2022/09/18 01:42:02;;;;;;;3.85;3.45;;;;;;;12.79;100.00;92633.75;1653664;85;21233;-57
2022/09/18 01:44:30;;;;;;;3.92;3.35;;;;;;;12.80;100.00;92642.75;1605864;87;21516;-57
2022/09/18 01:46:59;;;;;;;3.47;3.17;;;;;;;12.82;100.00;92645.75;1653703;85;21135;-57
2022/09/18 01:49:39;;;;;;;5.00;3.52;;;;;;;12.88;100.00;92648.59;1652816;85;21139;-57
2022/09/18 01:52:18;;;;;;;3.95;3.65;;;;;;;12.96;100.00;92649.59;1653435;85;21607;-56
2022/09/18 01:54:47;;;;;;;5.70;3.58;;;;;;;12.98;100.00;92651.81;1651559;85;21220;-57
2022/09/18 01:57:29;;;;;;;3.72;3.22;;;;;;;12.94;99.50;92638.94;1628116;87;20978;-57
2022/09/18 02:00:12;;;;;;;5.90;3.47;;;;;;;12.88;99.34;92638.20;1609120;87;21062;-56
2022/09/18 02:03:19;;;;;;;3.10;2.90;;;;;;;12.84;99.67;92637.09;1616983;88;21081;-57
2022/09/18 02:05:50;;;;;;;3.02;2.72;;;;;;;12.89;100.00;92619.00;1652211;85;20980;-57
2022/09/18 02:08:48;;;;;;;3.55;2.67;;;;;;;12.95;100.00;92618.35;1639226;86;21546;-56
2022/09/18 02:11:17;;;;;;;2.80;2.60;;;;;;;12.96;100.00;92618.47;1652823;85;21056;-57
2022/09/18 02:14:04;;;;;;;6.00;2.27;;;;;;;12.98;100.00;92603.52;1624633;87;21510;-57
2022/09/18 02:16:50;;;;;;;2.55;2.35;;;;;;;13.01;99.86;92597.73;1617289;87;20982;-57
2022/09/18 02:19:45;;;;;;;2.10;2.00;;;;;;;13.08;99.52;92597.81;1616734;87;21022;-57
2022/09/18 02:22:15;;;;;;;2.45;2.25;;;;;;;13.10;99.28;92595.28;1615764;87;21802;-56
2022/09/18 02:24:46;;;;;;;3.33;2.90;;;;;;;13.07;98.58;92601.83;1616451;88;21045;-57
2022/09/18 02:27:13;;;;;;;2.52;2.33;;;;;;;12.98;98.47;92592.48;1615692;88;20978;-57
2022/09/18 02:29:42;;;;;;;2.98;2.35;;;;;;;12.94;98.99;92590.64;1625724;86;21081;-56
2022/09/18 02:32:09;;;;;;;3.40;1.98;;;;;;;12.90;98.85;92583.25;1628460;87;21082;-56
2022/09/18 02:34:36;;;;;;;3.42;2.55;;;;;;;12.84;98.84;92582.52;1603838;88;21278;-57
2022/09/18 02:37:41;;;;;;;2.77;2.58;;;;;;;12.80;99.14;92584.20;1624898;87;21125;-57
2022/09/18 02:40:25;;;;;;;6.00;2.58;;;;;;;12.76;99.41;92580.21;1617470;87;20990;-56
2022/09/18 02:43:16;;;;;;;2.30;2.17;;;;;;;12.75;100.00;92589.11;1627170;87;21093;-57
2022/09/18 02:45:51;;;;;;;2.70;2.50;;;;;;;12.78;100.00;92591.48;1624231;87;21090;-57
2022/09/18 02:48:27;;;;;;;2.42;2.22;;;;;;;12.72;100.00;92596.30;1625090;87;21093;-58
2022/09/18 02:51:21;;;;;;;1.57;1.50;;;;;;;12.55;98.85;92591.52;1618815;86;20978;-57
2022/09/18 02:54:06;;;;;;;1.90;1.80;;;;;;;12.36;98.33;92588.50;1623269;87;21490;-56
2022/09/18 02:56:49;;;;;;;1.42;1.35;;;;;;;12.15;97.69;92585.37;1626248;87;20994;-57
2022/09/18 02:59:32;;;;;;;1.95;1.50;;;;;;;11.99;97.25;92590.94;1626208;87;21124;-57
2022/09/18 03:01:59;;;;;;;;;;;;;;;11.82;96.83;92588.88;1630055;87;21172;-57
2022/09/18 03:04:27;;;;;;;1.55;1.45;;;;;;;11.64;97.26;92587.45;1652486;85;20160;-58
2022/09/18 03:06:59;;;;;;;1.55;1.45;;;;;;;11.53;97.92;92587.44;1652620;85;21028;-56
2022/09/18 03:09:26;;;;;;;1.55;1.50;;;;;;;11.50;98.01;92591.21;1653023;85;21045;-56
2022/09/18 03:11:54;;;;;;;1.57;1.50;;;;;;;11.44;97.59;92591.09;1653114;85;20974;-56
2022/09/18 03:14:21;;;;;;;1.70;1.60;;;;;;;11.38;97.73;92584.87;1651135;86;21249;-57
2022/09/18 03:16:48;;;;;;;1.70;1.60;;;;;;;11.38;97.91;92585.60;1626265;87;21033;-56
2022/09/18 03:19:16;;;;;;;1.85;1.75;;;;;;;11.39;97.55;92586.36;1595619;88;20994;-57
2022/09/18 03:21:43;;;;;;;1.75;1.75;;;;;;;11.38;97.57;92591.75;1612703;88;20998;-57
2022/09/18 03:24:11;;;;;;;3.42;1.40;;;;;;;11.37;97.36;92596.48;1644354;85;21421;-56
2022/09/18 03:26:40;;;;;;;1.65;1.50;;;;;;;11.33;97.01;92591.87;1652897;85;21177;-58
2022/09/18 03:29:08;;;;;;;1.80;1.60;;;;;;;11.26;96.77;92591.02;1653353;85;21072;-57
2022/09/18 03:31:36;;;;;;;1.30;1.30;;;;;;;11.22;96.62;92585.03;1653484;85;20977;-57
2022/09/18 03:34:04;;;;;;;1.60;1.50;;;;;;;11.22;96.71;92587.02;1651071;85;21066;-57
2022/09/18 03:36:31;;;;;;;1.65;1.55;;;;;;;11.18;96.00;92607.91;1631902;87;20982;-57
2022/09/18 03:38:58;;;;;;;1.52;1.42;;;;;;;11.10;95.92;92613.80;1650883;85;21228;-57
2022/09/18 03:41:25;;;;;;;2.98;1.55;;;;;;;11.00;95.70;92631.80;1640042;86;21028;-56
2022/09/18 03:43:53;;;;;;;1.60;1.50;;;;;;;10.92;95.81;92643.20;1652377;85;21021;-56
2022/09/18 03:46:22;;;;;;;1.65;1.50;;;;;;;10.83;95.58;92651.67;1651589;86;21025;-57
2022/09/18 03:48:51;;;;;;;1.52;1.50;;;;;;;10.71;95.69;92659.68;1653354;86;20964;-58
2022/09/18 03:51:19;;;;;;;2.02;1.92;;;;;;;10.63;96.39;92674.54;1650746;86;21258;-58
2022/09/18 03:53:47;;;;;;;1.85;1.75;;;;;;;10.56;96.36;92689.39;1655904;85;21064;-57
2022/09/18 03:56:32;;;;;;;1.80;1.70;;;;;;;10.49;96.51;92696.75;1654354;85;21057;-56
2022/09/18 03:59:12;;;;;;;2.05;1.60;;;;;;;10.40;96.02;92700.48;1640438;86;21013;-57
2022/09/18 04:01:59;;;;;;;1.90;1.80;;;;;;;10.32;96.14;92689.08;1652797;85;21138;-57
2022/09/18 04:04:27;;;;;;;1.87;1.77;;;;;;;10.24;96.44;92688.03;1641686;86;22047;-56
2022/09/18 04:07:07;;;;;;;2.80;2.00;;;;;;;10.20;97.03;92680.02;1652443;85;21064;-57
2022/09/18 04:09:52;;;;;;;1.80;1.70;;;;;;;10.16;97.05;92692.52;1652746;85;21071;-57
2022/09/18 04:12:21;;;;;;;1.70;1.60;;;;;;;10.13;97.40;92681.88;1621808;86;21129;-57
2022/09/18 04:14:49;;;;;;;2.22;1.77;;;;;;;10.13;97.08;92686.64;1613104;87;21075;-58
2022/09/18 04:17:17;;;;;;;1.82;1.72;;;;;;;10.16;96.63;92682.27;1615507;88;21826;-58
2022/09/18 04:19:44;;;;;;;2.20;2.00;;;;;;;10.16;95.33;92682.27;1651373;86;20968;-57
2022/09/18 04:22:11;;;;;;;1.80;1.80;;;;;;;10.15;94.58;92690.38;1625702;87;21090;-57
2022/09/18 04:24:39;;;;;;;1.80;1.70;;;;;;;10.16;93.39;92695.27;1591943;89;21065;-57
2022/09/18 04:27:06;;;;;;;2.85;1.80;;;;;;;10.14;92.03;92702.61;1611132;87;21113;-57
2022/09/18 04:29:33;;;;;;;2.10;2.00;;;;;;;10.10;91.03;92704.08;1642785;86;21150;-56
2022/09/18 04:32:00;;;;;;;1.90;1.80;;;;;;;10.04;90.22;92715.67;1649579;85;21081;-56
2022/09/18 04:34:27;;;;;;;1.82;1.80;;;;;;;9.99;90.14;92722.61;1652132;85;21710;-57
2022/09/18 04:36:54;;;;;;;3.20;2.00;;;;;;;9.97;89.64;92738.09;1652310;85;21025;-57
2022/09/18 04:39:21;;;;;;;1.77;1.77;;;;;;;9.93;90.96;92747.16;1641116;86;20973;-57
2022/09/18 04:41:49;;;;;;;1.90;1.80;;;;;;;9.89;91.63;92754.28;1651460;85;21249;-57
2022/09/18 04:44:17;;;;;;;2.10;2.00;;;;;;;9.85;92.03;92756.50;1639424;86;21122;-55
2022/09/18 04:46:43;;;;;;;2.65;2.45;;;;;;;9.82;92.08;92756.73;1653114;85;21048;-58
2022/09/18 04:49:10;;;;;;;2.00;1.90;;;;;;;9.83;91.74;92758.97;1650727;85;21161;-56
2022/09/18 04:51:37;;;;;;;2.02;1.92;;;;;;;9.78;91.65;92767.19;1624285;87;21034;-57
2022/09/18 04:54:04;;;;;;;2.00;1.90;;;;;;;9.74;91.44;92772.13;1615511;88;21458;-57
2022/09/18 04:56:33;;;;;;;1.82;1.80;;;;;;;9.69;91.32;92768.73;1651741;85;21089;-55
2022/09/18 04:59:00;;;;;;;1.90;1.80;;;;;;;9.64;91.47;92763.97;1625659;87;21113;-56
2022/09/18 05:01:27;;;;;;;2.00;1.90;;;;;;;9.62;91.90;92757.58;1650967;85;21033;-56
2022/09/18 05:03:54;;;;;;;2.20;2.10;;;;;;;9.59;92.11;92748.22;1628492;87;21041;-56
2022/09/18 05:06:23;;;;;;;2.42;2.33;;;;;;;9.57;92.42;92747.33;1615816;87;21181;-57
2022/09/18 05:08:50;;;;;;;2.10;2.00;;;;;;;9.59;92.51;92748.22;1617877;88;21139;-57
2022/09/18 05:11:20;;;;;;;2.27;2.17;;;;;;;9.55;92.46;92750.41;1654173;85;21049;-58
2022/09/18 05:13:47;;;;;;;2.62;2.42;;;;;;;9.54;91.83;92755.77;1652812;85;21068;-55
2022/09/18 05:16:17;;;;;;;2.55;2.45;;;;;;;9.51;91.52;92773.22;1651114;86;21457;-57
2022/09/18 05:18:46;;;;;;;2.10;2.00;;;;;;;9.43;90.59;92772.91;1654135;85;21092;-58
2022/09/18 05:21:13;;;;;;;2.00;1.90;;;;;;;9.37;91.08;92780.35;1640807;86;21259;-57
2022/09/18 05:23:41;;;;;;;2.20;2.10;;;;;;;9.34;90.54;92783.31;1652609;85;21053;-57
2022/09/18 05:26:11;;;;;;;2.47;2.00;;;;;;;9.30;89.95;92781.41;1647520;86;21170;-57
2022/09/18 05:28:39;;;;;;;2.17;2.00;;;;;;;9.24;90.36;92787.48;1653989;85;21147;-57
2022/09/18 05:31:08;;;;;;;2.02;1.92;;;;;;;9.21;89.89;92798.79;1641388;86;21231;-57
2022/09/18 05:33:40;;;;;;;2.35;2.25;;;;;;;9.22;89.38;92794.08;1652865;85;20969;-57
2022/09/18 05:36:06;;;;;;;2.30;2.20;;;;;;;9.22;88.97;92803.67;1626360;87;21015;-58
2022/09/18 05:38:33;;;;;;;2.10;2.00;;;;;;;9.23;88.90;92801.06;1605803;88;21100;-56
2022/09/18 05:41:02;;;;;;;2.58;2.40;;;;;;;9.19;88.51;92807.36;1613424;88;20987;-57
2022/09/18 05:43:29;;;;;;;2.10;2.00;;;;;;;9.19;88.24;92800.50;1607073;89;21165;-57
2022/09/18 05:45:59;;;;;;;2.10;2.00;;;;;;;9.16;88.49;92793.25;1613728;88;21543;-57
2022/09/18 05:48:28;;;;;;;2.10;2.00;;;;;;;9.15;88.50;92802.11;1605971;89;21029;-56
2022/09/18 05:50:55;;;;;;;2.20;2.10;;;;;;;9.16;88.33;92809.70;1606071;87;21030;-56
2022/09/18 05:53:25;;;;;;;2.10;2.00;;;;;;;9.16;87.64;92809.10;1607886;89;20971;-57
2022/09/18 05:55:59;;;;;;;2.25;2.15;;;;;;;9.21;87.29;92807.66;1616230;88;21312;-60
2022/09/18 05:58:26;;;;;;;2.35;2.25;;;;;;;9.23;86.49;92813.41;1608732;88;21015;-56
2022/09/18 06:00:56;;;;;;;2.80;2.60;;;;;;;9.22;86.08;92816.02;1605040;89;20978;-58
2022/09/18 06:03:24;;;;;;;7.22;6.53;;;;;;;9.16;85.60;92820.68;1592281;88;21718;-58
2022/09/18 06:05:52;;;;;;;4.00;2.98;;;;;;;9.14;84.99;92820.41;1607376;89;21011;-57
2022/09/18 06:08:19;;;;;;;3.83;3.52;;;;;;;9.14;84.65;92823.16;1606931;89;22033;-58
2022/09/18 06:10:46;;;;;;;4.58;4.10;;;;;;;9.13;83.34;92827.91;1607021;89;21070;-56
2022/09/18 06:13:16;;;;;;;3.95;3.60;;;;;;;9.17;83.89;92834.53;1597286;88;20999;-60
2022/09/18 06:15:46;;;;;;;2.77;2.47;;;;;;;9.21;84.07;92840.58;1609423;88;21440;-58
2022/09/18 06:18:15;;;;;;;3.58;2.90;;;;;;;9.23;83.24;92841.58;1607202;89;21019;-58
2022/09/18 06:20:43;;;;;;;2.98;2.77;;;;;;;9.20;83.21;92847.27;1607068;89;21258;-57
2022/09/18 06:23:10;;;;;;;3.10;2.90;;;;;;;9.16;82.99;92844.76;1606910;89;21075;-57
2022/09/18 06:25:39;;;;;;;2.60;2.40;;;;;;;9.12;83.28;92837.37;1605731;89;21517;-57
2022/09/18 06:28:06;;;;;;;2.92;2.72;;;;;;;9.08;83.68;92844.30;1607069;89;21035;-58
2022/09/18 06:30:35;;;;;;;2.72;2.50;;;;;;;9.06;83.46;92844.77;1607133;89;21061;-59
2022/09/18 06:33:05;;;;;;;2.60;2.40;;;;;;;9.11;83.11;92858.41;1607088;89;21158;-57
2022/09/18 06:35:33;;;;;;;2.87;2.67;;;;;;;9.13;82.83;92857.31;1602410;87;20986;-58
2022/09/18 06:38:02;;;;;;;3.10;2.72;;;;;;;9.15;82.71;92861.69;1614083;88;21063;-57
2022/09/18 06:40:31;;;;;;;3.30;3.00;;;;;;;9.18;81.82;92869.72;1606153;89;21003;-57
2022/09/18 06:43:15;;;;;;;3.22;2.92;;;;;;;9.20;81.79;92870.59;1605767;89;20971;-57
2022/09/18 06:45:52;;;;;;;4.08;3.00;;;;;;;9.20;82.13;92874.70;1580611;89;21022;-57
2022/09/18 06:48:23;;;;;;;3.98;3.65;;;;;;;9.25;81.75;92880.88;1606307;88;20994;-57
2022/09/18 06:50:53;;;;;;;6.20;5.05;;;;;;;9.31;81.01;92885.80;1596554;88;21049;-56
2022/09/18 06:53:21;;;;;;;10.70;7.17;;;;;;;9.35;81.04;92898.08;1599840;89;21057;-58
2022/09/18 06:55:49;;;;;;;4.67;4.28;;;;;;;9.39;81.04;92897.23;1606081;88;21003;-58
2022/09/18 06:58:18;;;;;;;4.35;3.95;;;;;;;9.47;81.08;92911.28;1610534;88;21244;-58
2022/09/18 07:00:45;;;;;;;9.93;6.70;;;;;;;9.48;80.60;92899.07;1648470;85;21024;-58
2022/09/18 07:03:13;;;;;;;7.25;6.40;;;;;;;9.44;81.03;92902.02;1653877;85;21064;-58
2022/09/18 07:05:58;;;;;;;16.70;10.15;;;;;;;9.45;80.64;92909.65;1653148;85;21094;-58
2022/09/18 07:08:29;;;;;;;9.75;6.37;;;;;;;9.46;80.99;92912.53;1651698;85;21635;-58
2022/09/18 07:11:01;;;;;;;14.58;9.20;;;;;;;9.57;81.70;92915.36;1651917;85;21236;-58
2022/09/18 07:13:32;;;;;;;6.70;6.00;;;;;;;9.69;81.93;92921.11;1641674;86;21008;-59
2022/09/18 07:15:59;;;;;;;4.87;4.47;;;;;;;9.84;82.08;92926.60;1652124;85;21084;-57
2022/09/18 07:18:27;;;;;;;9.23;6.12;;;;;;;9.95;81.04;92929.45;1638169;86;21106;-59
2022/09/18 07:20:53;;;;;;;13.15;9.73;;;;;;;10.04;81.14;92935.43;1653899;86;21016;-57
2022/09/18 07:23:23;;;;;;;8.95;6.70;;;;;;;10.20;81.67;92934.17;1652988;85;21164;-58
2022/09/18 07:25:51;;;;;;;8.85;6.50;;;;;;;10.28;80.77;92949.60;1639418;86;20981;-58
2022/09/18 07:28:18;;;;;;;28.25;19.20;;;;;;;10.27;81.11;92961.84;1653549;85;21550;-58
2022/09/18 07:30:47;;;;;;;18.50;11.03;;;;;;;10.22;81.68;92968.81;1619310;85;21599;-57
2022/09/18 07:33:15;;;;;;;21.33;10.95;;;;;;;10.21;81.76;92967.31;1647989;86;21099;-58
2022/09/18 07:35:44;;;;;;;63.48;32.30;;;;;;;10.20;80.76;92976.03;1653614;85;22171;-57
2022/09/18 07:38:12;;;;;;;13.98;8.95;;;;;;;10.18;79.42;92979.25;1650531;85;21105;-57
2022/09/18 07:40:52;;;;;;;8.03;6.12;;;;;;;10.17;78.58;92989.37;1652301;85;21453;-58
2022/09/18 07:43:21;;;;;;;11.00;6.83;;;;;;;10.15;79.42;92990.48;1642656;86;21090;-58
2022/09/18 07:45:50;;;;;;;13.28;8.70;;;;;;;10.06;78.52;92995.52;1652418;85;21142;-57
2022/09/18 07:48:16;;;;;;;36.65;22.87;;;;;;;9.99;78.41;92997.92;1652354;85;21885;-58
2022/09/18 07:50:45;;;;;;;36.63;18.27;;;;;;;9.92;79.14;92999.70;1651688;85;21469;-59
2022/09/18 07:53:12;;;;;;;25.52;13.72;;;;;;;9.88;78.18;93012.91;1652036;85;21012;-59
2022/09/18 07:55:44;;;;;;;10.98;8.70;;;;;;;9.90;78.16;93013.17;1640394;85;21024;-57
2022/09/18 07:58:09;;;;;;;4.92;4.45;;;;;;;9.87;78.52;93019.64;1653116;85;21163;-59
2022/09/18 08:01:04;;;;;;;13.25;8.08;;;;;;;9.86;78.87;93018.90;1645718;85;21171;-59
2022/09/18 08:03:32;;;;;;;11.80;6.92;;;;;;;9.86;78.53;93023.62;1653368;85;20972;-59
2022/09/18 08:06:05;;;;;;;7.00;5.60;;;;;;;9.85;78.29;93027.61;1623986;87;21085;-56
2022/09/18 08:08:35;;;;;;;9.78;7.55;;;;;;;9.90;79.01;93036.52;1603297;88;21624;-57
2022/09/18 08:11:17;;;;;;;13.68;11.50;;;;;;;9.95;79.08;93037.22;1591438;89;21098;-57
2022/09/18 08:13:49;;;;;;;6.15;5.25;;;;;;;9.98;78.83;93040.36;1604134;88;21271;-56
2022/09/18 08:16:30;;;;;;;19.15;14.35;;;;;;;9.96;78.45;93041.47;1552314;88;21502;-58
2022/09/18 08:19:11;;;;;;;50.17;25.45;;;;;;;9.96;78.28;93037.34;1600279;88;21044;-58
2022/09/18 08:21:46;;;;;;;13.55;8.35;;;;;;;9.93;77.85;93047.91;1601843;88;20987;-58
2022/09/18 08:24:16;;;;;;;30.15;18.32;;;;;;;9.94;77.62;93057.05;1606239;87;21009;-59
2022/09/18 08:26:44;;;;;;;24.25;13.08;;;;;;;9.94;78.12;93050.78;1613531;88;21199;-60
2022/09/18 08:29:19;;;;;;;11.60;7.65;;;;;;;9.87;78.35;93054.73;1621556;88;21427;-58
2022/09/18 08:31:48;;;;;;;11.78;7.62;;;;;;;9.85;78.09;93056.44;1615967;88;21539;-60
2022/09/18 08:34:15;;;;;;;14.58;8.83;;;;;;;9.90;79.38;93067.49;1652962;86;21010;-58
2022/09/18 08:36:42;;;;;;;11.78;6.78;;;;;;;10.00;78.73;93072.22;1634546;86;21419;-57
2022/09/18 08:39:11;;;;;;;13.75;7.87;;;;;;;10.06;78.17;93070.30;1650590;86;21606;-59
2022/09/18 08:42:32;;;;;;;19.40;12.23;;;;;;;10.11;78.67;93077.84;1632038;86;21022;-58
2022/09/18 08:45:19;;;;;;;8.53;6.33;;;;;;;10.13;78.81;93077.50;1653527;86;21544;-58
2022/09/18 08:48:01;;;;;;;92.92;44.83;;;;;;;10.14;78.32;93083.77;1652208;86;21530;-58
2022/09/18 08:50:31;;;;;;;20.52;10.05;;;;;;;10.13;78.96;93080.88;1605966;87;21188;-58
2022/09/18 08:53:21;;;;;;;6.17;3.80;;;;;;;10.17;79.65;93081.42;1652696;86;21169;-57
2022/09/18 08:55:58;;;;;;;6.95;4.75;;;;;;;10.15;77.54;93082.52;1553221;91;21600;-59
2022/09/18 08:58:46;;;;;;;26.35;11.38;;;;;;;10.16;76.97;93079.91;1599941;88;20994;-59
2022/09/18 09:01:16;;;;;;;5.80;4.75;;;;;;;10.23;77.00;93082.22;1603361;88;21040;-58
2022/09/18 09:04:05;;;;;;;6.95;5.50;;;;;;;10.33;77.65;93093.20;1605304;88;20984;-59
2022/09/18 09:07:04;;;;;;;8.70;6.33;;;;;;;10.37;77.03;93086.86;1582451;89;21291;-58
2022/09/18 09:10:02;;;;;;;30.35;19.05;;;;;;;10.48;76.55;93097.34;1620678;87;21009;-58
2022/09/18 09:12:52;;;;;;;32.78;17.87;;;;;;;10.50;76.77;93106.48;1601976;88;20988;-58
2022/09/18 09:15:31;;;;;;;16.20;9.98;;;;;;;10.55;76.17;93103.02;1623946;87;21030;-57
2022/09/18 09:18:22;;;;;;;28.73;16.32;;;;;;;10.61;75.69;93112.06;1672671;84;21015;-58
2022/09/18 09:20:55;;;;;;;5.10;3.85;;;;;;;10.70;76.37;93116.04;1670949;85;21187;-58
2022/09/18 09:23:58;;;;;;;3.58;3.27;;;;;;;10.71;76.44;93117.55;1656906;85;21656;-58
2022/09/18 09:26:27;;;;;;;5.75;4.20;;;;;;;10.65;76.12;93122.99;1648079;85;21502;-57
2022/09/18 09:29:08;;;;;;;11.08;8.50;;;;;;;10.70;77.06;93124.29;1611280;88;21083;-59
2022/09/18 09:32:12;;;;;;;4.83;4.42;;;;;;;10.79;76.58;93125.61;1639055;86;21237;-58
2022/09/18 09:34:54;;;;;;;3.80;3.45;;;;;;;10.92;74.58;93115.58;1601026;88;21687;-58
2022/09/18 09:37:42;;;;;;;2.50;2.30;;;;;;;11.06;74.79;93122.34;1620611;87;21172;-58
2022/09/18 09:40:19;;;;;;;9.15;7.05;;;;;;;11.05;73.61;93122.83;1603896;87;21134;-59
2022/09/18 09:42:54;;;;;;;6.37;4.67;;;;;;;11.02;74.86;93130.05;1601175;87;21319;-58
2022/09/18 09:45:32;;;;;;;5.70;4.40;;;;;;;11.00;74.70;93135.92;1634071;86;21123;-58
2022/09/18 09:48:25;;;;;;;4.47;3.60;;;;;;;10.98;74.62;93137.03;1612778;87;21265;-59
2022/09/18 09:51:13;;;;;;;;;;;;;;;11.02;75.09;93145.18;1589536;87;21209;-58
2022/09/18 09:53:40;;;;;;;2.87;2.60;;;;;;;11.05;73.22;93150.34;1582852;87;20476;-59
2022/09/18 09:56:33;;;;;;;3.62;3.33;;;;;;;11.14;74.21;93154.30;1586648;87;21102;-58
2022/09/18 09:59:28;;;;;;;3.27;3.02;;;;;;;11.16;73.96;93146.31;1664089;85;21523;-58
2022/09/18 10:02:27;;;;;;;5.53;3.87;;;;;;;11.23;74.71;93153.50;1652839;85;21181;-57
2022/09/18 10:05:02;;;;;;;3.92;3.27;;;;;;;11.30;75.74;93158.55;1652828;85;21027;-58
2022/09/18 10:07:40;;;;;;;2.90;2.60;;;;;;;11.34;74.91;93160.44;1649749;86;21104;-58
2022/09/18 10:10:48;;;;;;;2.83;2.62;;;;;;;11.39;75.10;93165.23;1647178;86;21095;-57
2022/09/18 10:13:25;;;;;;;3.27;2.95;;;;;;;11.49;75.49;93173.45;1650962;86;21121;-57
2022/09/18 10:16:08;;;;;;;2.77;2.58;;;;;;;11.63;75.91;93179.45;1650013;86;21283;-61
2022/09/18 10:18:41;;;;;;;4.05;2.70;;;;;;;11.72;74.41;93171.63;1653160;86;27036;-61
2022/09/18 10:21:15;;;;;;;3.67;3.00;;;;;;;11.74;73.83;93182.27;1605169;88;21194;-58
2022/09/18 10:24:10;;;;;;;3.00;2.80;;;;;;;11.81;74.30;93183.20;1650621;86;21161;-59
2022/09/18 10:26:55;;;;;;;2.70;2.50;;;;;;;11.88;73.73;93191.63;1604452;88;20982;-58
2022/09/18 10:29:23;;;;;;;2.17;2.08;;;;;;;12.06;73.45;93186.45;1650189;86;21125;-57
2022/09/18 10:31:59;;;;;;;3.08;2.80;;;;;;;12.27;73.78;93194.69;1653393;86;21082;-58
2022/09/18 10:34:47;;;;;;;2.02;1.92;;;;;;;12.41;72.52;93195.13;1651643;86;20979;-59
2022/09/18 10:37:34;;;;;;;5.05;2.08;;;;;;;12.53;72.17;93198.68;1607103;88;21049;-59
2022/09/18 10:40:06;;;;;;;2.10;1.90;;;;;;;12.53;70.33;93192.55;1650647;86;21068;-57
2022/09/18 10:42:35;;;;;;;1.95;1.85;;;;;;;12.53;68.92;93204.20;1654180;85;22094;-57
2022/09/18 10:45:23;;;;;;;2.65;2.25;;;;;;;12.49;68.63;93214.08;1650968;86;21030;-58
2022/09/18 10:48:05;;;;;;;2.72;2.50;;;;;;;12.47;69.16;93213.83;1626350;85;21245;-59
2022/09/18 10:50:33;;;;;;;2.83;2.60;;;;;;;12.52;70.02;93210.35;1636593;85;21048;-58
2022/09/18 10:53:33;;;;;;;3.35;2.50;;;;;;;12.59;69.62;93212.63;1635429;85;21112;-61
2022/09/18 10:56:20;;;;;;;3.40;2.67;;;;;;;12.63;70.43;93211.75;1653749;85;21155;-58
2022/09/18 10:58:48;;;;;;;2.62;2.02;;;;;;;12.73;69.90;93217.19;1627009;86;21506;-59
2022/09/18 11:01:15;;;;;;;2.05;1.80;;;;;;;12.82;70.43;93216.95;1654243;85;21140;-59
2022/09/18 11:04:03;;;;;;;1.90;1.80;;;;;;;12.85;68.22;93226.98;1635117;85;21118;-57
2022/09/18 11:06:34;;;;;;;2.17;1.98;;;;;;;12.87;68.30;93221.75;1639913;85;20962;-59
2022/09/18 11:09:07;;;;;;;4.17;2.58;;;;;;;13.01;69.14;93216.64;1643960;85;21157;-62
2022/09/18 11:11:37;;;;;;;2.72;2.00;;;;;;;13.14;67.45;93216.92;1633475;86;21031;-57
2022/09/18 11:14:16;;;;;;;5.00;2.47;;;;;;;13.21;65.30;93220.56;1652040;85;21079;-60
2022/09/18 11:16:51;;;;;;;3.77;2.80;;;;;;;13.21;65.07;93225.47;1657279;85;21135;-62
2022/09/18 11:19:32;;;;;;;4.60;2.60;;;;;;;13.28;65.21;93226.98;1642344;86;21043;-58
2022/09/18 11:22:08;;;;;;;12.00;6.42;;;;;;;13.39;65.37;93231.89;1594484;88;21137;-61
2022/09/18 11:24:38;;;;;;;2.10;1.85;;;;;;;13.53;64.58;93234.28;1618201;87;21032;-59
2022/09/18 11:27:20;;;;;;;3.17;2.60;;;;;;;13.79;65.00;93236.17;1634976;86;21605;-59
2022/09/18 11:29:48;;;;;;;2.50;2.30;;;;;;;14.11;64.85;93235.98;1624511;87;21080;-58
2022/09/18 11:32:28;;;;;;;1.92;1.82;;;;;;;14.40;63.81;93238.22;1629074;86;21088;-58
2022/09/18 11:35:00;;;;;;;4.58;4.17;;;;;;;14.60;62.13;93242.17;1624411;86;23277;-58
2022/09/18 11:37:35;;;;;;;2.12;1.92;;;;;;;14.65;59.21;93252.45;1626483;86;20983;-56
2022/09/18 11:40:06;;;;;;;5.20;4.45;;;;;;;14.57;58.15;93257.03;1623037;86;21077;-58
2022/09/18 11:42:43;;;;;;;2.62;2.35;;;;;;;14.46;58.28;93256.31;1631777;86;20971;-58
2022/09/18 11:45:45;;;;;;;1.90;1.80;;;;;;;14.32;58.40;93257.99;1633236;86;21469;-59
2022/09/18 11:48:24;;;;;;;3.15;1.92;;;;;;;14.16;58.50;93268.45;1625205;86;21286;-60
2022/09/18 11:50:55;;;;;;;2.20;2.00;;;;;;;13.85;58.24;93277.00;1630258;87;21372;-60
2022/09/18 11:53:25;;;;;;;2.37;1.90;;;;;;;13.62;58.90;93275.49;1621264;87;21485;-59
2022/09/18 11:56:16;;;;;;;1.60;1.50;;;;;;;13.49;59.93;93273.20;1623927;87;21239;-59
2022/09/18 11:59:10;;;;;;;2.12;1.80;;;;;;;13.40;60.05;93283.73;1619746;88;20973;-58
2022/09/18 12:01:51;;;;;;;1.80;1.70;;;;;;;13.32;60.73;93282.73;1493812;92;21209;-58
2022/09/18 12:04:39;;;;;;;1.60;1.50;;;;;;;13.28;59.75;93277.44;1603452;87;21030;-58
2022/09/18 12:07:29;;;;;;;1.50;1.40;;;;;;;13.22;59.79;93275.91;1619690;88;21086;-57
2022/09/18 12:10:14;;;;;;;7.87;5.00;;;;;;;13.18;60.59;93283.70;1622280;87;21104;-59